createdAt,value
2017-09-13T00:00:39.332Z,1010.5
2017-09-13T00:01:38.248Z,1010.6
2017-09-13T00:05:35.065Z,1010.5
2017-09-13T00:06:34.360Z,1010.5
2017-09-13T00:08:32.916Z,1010.5
2017-09-13T00:16:26.024Z,1010.5
2017-09-13T00:17:25.563Z,1010.5
2017-09-13T00:18:24.471Z,1010.5
2017-09-13T00:19:23.888Z,1010.4
2017-09-13T00:21:22.189Z,1010.4
2017-09-13T00:27:17.532Z,1010.4
2017-09-13T00:29:15.578Z,1010.3
2017-09-13T00:30:15.117Z,1010.3
2017-09-13T00:32:13.539Z,1010.4
2017-09-13T00:33:12.447Z,1010.4
2017-09-13T00:35:10.625Z,1010.4
2017-09-13T00:36:09.919Z,1010.4
2017-09-13T00:38:08.468Z,1010.5
2017-09-13T00:40:07.031Z,1010.4
2017-09-13T00:43:04.599Z,1010.3
2017-09-13T00:45:02.652Z,1010.1
2017-09-13T00:47:00.957Z,1010.2
2017-09-13T00:49:58.638Z,1010.2
2017-09-13T00:50:57.924Z,1010.2
2017-09-13T00:51:57.338Z,1010.3
2017-09-13T00:56:53.044Z,1010.3
2017-09-13T00:57:52.337Z,1010.3
2017-09-13T01:01:48.781Z,1010.2
2017-09-13T01:02:48.200Z,1010.2
2017-09-13T01:03:47.485Z,1010.2
2017-09-13T01:04:46.654Z,1010.2
2017-09-13T01:05:45.690Z,1010.3
2017-09-13T01:06:44.852Z,1010.2
2017-09-13T01:09:42.536Z,1010.3
2017-09-13T01:10:41.822Z,1010.2
2017-09-13T01:11:41.107Z,1010.2
2017-09-13T01:12:40.033Z,1010.2
2017-09-13T01:13:39.075Z,1010.1
2017-09-13T01:14:38.239Z,1010
2017-09-13T01:16:36.783Z,1010
2017-09-13T01:17:36.074Z,1010
2017-09-13T01:18:34.984Z,1010
2017-09-13T01:20:33.658Z,1009.9
2017-09-13T01:21:32.819Z,1009.9
2017-09-13T01:22:32.113Z,1010
2017-09-13T01:24:30.152Z,1009.9
2017-09-13T01:26:28.458Z,1009.9
2017-09-13T01:27:27.616Z,1010
2017-09-13T01:29:26.414Z,1010
2017-09-13T01:30:25.329Z,1009.9
2017-09-13T01:31:24.747Z,1009.9
2017-09-13T01:33:23.178Z,1009.9
2017-09-13T01:34:22.085Z,1009.8
2017-09-13T01:39:18.301Z,1009.8
2017-09-13T01:40:17.083Z,1009.8
2017-09-13T01:41:16.626Z,1009.8
2017-09-13T01:42:15.917Z,1009.8
2017-09-13T01:43:15.080Z,1009.8
2017-09-13T01:44:14.241Z,1009.9
2017-09-13T01:45:13.036Z,1009.8
2017-09-13T01:47:11.584Z,1009.8
2017-09-13T01:49:09.769Z,1009.8
2017-09-13T01:50:09.055Z,1009.8
2017-09-13T01:51:08.345Z,1009.8
2017-09-13T01:52:07.755Z,1009.7
2017-09-13T01:53:06.787Z,1009.7
2017-09-13T01:56:04.218Z,1009.5
2017-09-13T01:59:01.902Z,1009.5
2017-09-13T02:00:00.938Z,1009.4
2017-09-13T02:01:00.374Z,1009.4
2017-09-13T02:02:58.549Z,1009.4
2017-09-13T02:04:57.090Z,1009.4
2017-09-13T02:05:56.139Z,1009.4
2017-09-13T02:08:53.959Z,1009.4
2017-09-13T02:10:51.875Z,1009.4
2017-09-13T02:12:50.554Z,1009.4
2017-09-13T02:13:49.596Z,1009.4
2017-09-13T02:14:48.636Z,1009.3
2017-09-13T02:15:48.175Z,1009.3
2017-09-13T02:17:46.348Z,1009.3
2017-09-13T02:19:45.020Z,1009.2
2017-09-13T02:21:42.945Z,1009.2
2017-09-13T02:22:42.370Z,1009.2
2017-09-13T02:23:41.607Z,1009.2
2017-09-13T02:27:38.180Z,1009.1
2017-09-13T02:28:37.404Z,1009.1
2017-09-13T02:31:35.213Z,1009
2017-09-13T02:32:34.121Z,1009
2017-09-13T02:34:32.546Z,1008.9
2017-09-13T02:36:30.725Z,1008.9
2017-09-13T02:37:30.019Z,1008.9
2017-09-13T02:38:29.563Z,1008.9
2017-09-13T02:40:27.487Z,1008.9
2017-09-13T02:41:27.032Z,1008.9
2017-09-13T02:44:24.476Z,1008.9
2017-09-13T02:47:29.216Z,1008.8
2017-09-13T02:48:21.089Z,1008.9
2017-09-13T02:49:20.257Z,1008.9
2017-09-13T02:53:17.083Z,1008.8
2017-09-13T02:54:16.262Z,1008.8
2017-09-13T02:58:13.212Z,1008.8
2017-09-13T03:00:11.386Z,1008.7
2017-09-13T03:01:10.680Z,1008.7
2017-09-13T03:02:09.969Z,1008.7
2017-09-13T03:05:07.280Z,1008.6
2017-09-13T03:06:06.706Z,1008.6
2017-09-13T03:09:04.269Z,1008.5
2017-09-13T03:10:03.556Z,1008.4
2017-09-13T03:11:02.595Z,1008.4
2017-09-13T03:12:01.511Z,1008.4
2017-09-13T03:13:00.683Z,1008.4
2017-09-13T03:14:59.235Z,1008.4
2017-09-13T03:15:58.653Z,1008.3
2017-09-13T03:16:57.833Z,1008.3
2017-09-13T03:18:56.261Z,1008.2
2017-09-13T03:19:55.180Z,1008.2
2017-09-13T03:20:54.603Z,1008.3
2017-09-13T03:21:53.393Z,1008.2
2017-09-13T03:24:51.331Z,1008.1
2017-09-13T03:27:48.896Z,1008.1
2017-09-13T03:30:46.337Z,1008.1
2017-09-13T03:32:44.660Z,1008
2017-09-13T03:34:43.214Z,1007.9
2017-09-13T03:35:42.508Z,1007.9
2017-09-13T03:36:41.420Z,1007.8
2017-09-13T03:40:38.489Z,1007.8
2017-09-13T03:46:33.580Z,1007.8
2017-09-13T03:47:32.386Z,1007.8
2017-09-13T03:48:31.556Z,1007.8
2017-09-13T03:50:30.357Z,1007.7
2017-09-13T03:51:29.276Z,1007.8
2017-09-13T03:52:28.440Z,1007.7
2017-09-13T03:53:27.735Z,1007.7
2017-09-13T03:54:27.029Z,1007.7
2017-09-13T03:55:26.318Z,1007.7
2017-09-13T03:56:25.226Z,1007.8
2017-09-13T03:57:24.656Z,1007.7
2017-09-13T03:58:23.702Z,1007.8
2017-09-13T04:00:21.891Z,1007.7
2017-09-13T04:03:19.833Z,1007.7
2017-09-13T04:05:17.879Z,1007.8
2017-09-13T04:06:17.421Z,1007.7
2017-09-13T04:08:15.591Z,1007.8
2017-09-13T04:09:14.752Z,1007.8
2017-09-13T04:11:13.303Z,1007.8
2017-09-13T04:12:12.343Z,1007.8
2017-09-13T04:13:11.512Z,1007.8
2017-09-13T04:14:10.935Z,1007.7
2017-09-13T04:15:10.104Z,1007.7
2017-09-13T04:16:09.393Z,1007.7
2017-09-13T04:17:08.563Z,1007.6
2017-09-13T04:18:07.727Z,1007.7
2017-09-13T04:20:06.045Z,1007.6
2017-09-13T04:21:05.218Z,1007.6
2017-09-13T04:22:04.511Z,1007.5
2017-09-13T04:23:03.682Z,1007.5
2017-09-13T04:24:02.850Z,1007.5
2017-09-13T04:25:01.890Z,1007.6
2017-09-13T04:27:00.195Z,1007.6
2017-09-13T04:27:59.618Z,1007.5
2017-09-13T04:30:57.057Z,1007.4
2017-09-13T04:31:56.226Z,1007.4
2017-09-13T04:32:55.387Z,1007.4
2017-09-13T04:33:54.552Z,1007.3
2017-09-13T04:34:53.716Z,1007.4
2017-09-13T04:35:53.011Z,1007.3
2017-09-13T04:36:52.592Z,1007.3
2017-09-13T04:37:51.767Z,1007.3
2017-09-13T04:38:50.558Z,1007.2
2017-09-13T04:39:49.973Z,1007.2
2017-09-13T04:40:20.580Z,1007.2
2017-09-13T04:40:50.809Z,1007.1
2017-09-13T04:41:48.597Z,1007.1
2017-09-13T04:42:47.761Z,1007
2017-09-13T04:43:46.809Z,1006.8
2017-09-13T04:44:46.227Z,1006.8
2017-09-13T04:45:45.023Z,1006.8
2017-09-13T04:46:44.197Z,1006.8
2017-09-13T04:47:43.490Z,1006.8
2017-09-13T04:48:42.781Z,1006.7
2017-09-13T04:49:42.234Z,1006.7
2017-09-13T04:50:41.425Z,1006.6
2017-09-13T04:51:40.564Z,1006.5
2017-09-13T04:52:39.612Z,1006.4
2017-09-13T04:53:38.903Z,1006.4
2017-09-13T04:54:38.206Z,1006.5
2017-09-13T04:56:36.257Z,1006.5
2017-09-13T04:57:35.808Z,1006.4
2017-09-13T04:58:35.106Z,1006.4
2017-09-13T04:59:34.147Z,1006.4
2017-09-13T05:00:33.443Z,1006.3
2017-09-13T05:01:32.505Z,1006.3
2017-09-13T05:02:31.549Z,1006.2
2017-09-13T05:03:30.971Z,1006.2
2017-09-13T05:04:30.011Z,1006.2
2017-09-13T05:05:29.434Z,1006.3
2017-09-13T05:06:28.477Z,1006.2
2017-09-13T05:07:27.772Z,1006.3
2017-09-13T05:08:26.937Z,1006.3
2017-09-13T05:09:26.227Z,1006.3
2017-09-13T05:10:25.270Z,1006.3
2017-09-13T05:11:24.826Z,1006.2
2017-09-13T05:12:23.618Z,1006.2
2017-09-13T05:13:23.075Z,1006.2
2017-09-13T05:14:22.373Z,1006.2
2017-09-13T05:15:21.285Z,1006.2
2017-09-13T05:16:20.832Z,1006.2
2017-09-13T05:17:19.619Z,1006.2
2017-09-13T05:18:19.166Z,1006.2
2017-09-13T05:19:18.219Z,1006
2017-09-13T05:20:17.266Z,1006.1
2017-09-13T05:21:16.559Z,1006.1
2017-09-13T05:22:15.732Z,1006.1
2017-09-13T05:23:15.276Z,1006.1
2017-09-13T05:24:14.439Z,1006.1
2017-09-13T05:25:13.480Z,1006.1
2017-09-13T05:26:12.517Z,1006
2017-09-13T05:27:12.189Z,1006
2017-09-13T05:28:11.357Z,1005.9
2017-09-13T05:29:10.398Z,1005.9
2017-09-13T05:30:09.693Z,1005.9
2017-09-13T05:31:08.606Z,1005.9
2017-09-13T05:32:07.900Z,1005.9
2017-09-13T05:33:07.067Z,1005.8
2017-09-13T05:34:06.608Z,1005.9
2017-09-13T05:35:05.517Z,1005.9
2017-09-13T05:36:04.815Z,1005.9
2017-09-13T05:37:03.987Z,1005.8
2017-09-13T05:38:03.531Z,1005.7
2017-09-13T05:39:02.715Z,1005.7
2017-09-13T05:40:02.005Z,1005.7
2017-09-13T05:41:01.168Z,1005.7
2017-09-13T05:42:00.210Z,1005.7
2017-09-13T05:42:59.254Z,1005.5
2017-09-13T05:43:58.556Z,1005.6
2017-09-13T05:44:57.716Z,1005.5
2017-09-13T05:45:57.139Z,1005.5
2017-09-13T05:46:56.428Z,1005.3
2017-09-13T05:47:55.597Z,1005.3
2017-09-13T05:48:54.891Z,1005.4
2017-09-13T05:49:53.934Z,1005.3
2017-09-13T05:51:52.239Z,1005.3
2017-09-13T05:52:51.408Z,1005.3
2017-09-13T05:53:50.842Z,1005.1
2017-09-13T05:54:50.261Z,1005.2
2017-09-13T05:55:49.430Z,1005.1
2017-09-13T05:56:48.721Z,1005
2017-09-13T05:57:47.639Z,1004.9
2017-09-13T05:58:46.803Z,1004.9
2017-09-13T05:59:45.965Z,1004.9
2017-09-13T06:01:44.763Z,1004.9
2017-09-13T06:02:43.551Z,1004.8
2017-09-13T06:03:42.840Z,1004.8
2017-09-13T06:04:42.380Z,1004.7
2017-09-13T06:05:41.677Z,1004.6
2017-09-13T06:06:40.722Z,1004.5
2017-09-13T06:07:40.027Z,1004.5
2017-09-13T06:08:39.316Z,1004.5
2017-09-13T06:09:38.478Z,1004.5
2017-09-13T06:10:37.771Z,1004.4
2017-09-13T06:11:36.932Z,1004.4
2017-09-13T06:12:35.976Z,1004.3
2017-09-13T06:13:35.394Z,1004.4
2017-09-13T06:14:34.558Z,1004.3
2017-09-13T06:15:33.852Z,1004.4
2017-09-13T06:16:04.085Z,1004.4
2017-09-13T06:16:34.314Z,1004.3
2017-09-13T06:17:04.538Z,1004.3
2017-09-13T06:18:31.383Z,1004.2
2017-09-13T06:19:30.423Z,1004.3
2017-09-13T06:20:29.845Z,1004.3
2017-09-13T06:21:28.885Z,1004.3
2017-09-13T06:22:28.299Z,1004.3
2017-09-13T06:23:27.469Z,1004.3
2017-09-13T06:24:26.758Z,1004.4
2017-09-13T06:25:25.926Z,1004.4
2017-09-13T06:26:25.093Z,1004.4
2017-09-13T06:27:24.473Z,1004.4
2017-09-13T06:28:23.638Z,1004.4
2017-09-13T06:29:22.935Z,1004.4
2017-09-13T06:30:21.843Z,1004.3
2017-09-13T06:31:21.389Z,1004.2
2017-09-13T06:32:20.180Z,1004.3
2017-09-13T06:33:19.607Z,1004.3
2017-09-13T06:34:18.776Z,1004.4
2017-09-13T06:35:18.189Z,1004.3
2017-09-13T06:36:17.104Z,1004.3
2017-09-13T06:37:16.396Z,1004.3
2017-09-13T06:38:15.689Z,1004.3
2017-09-13T06:39:14.982Z,1004.2
2017-09-13T06:40:14.026Z,1004.2
2017-09-13T06:41:13.315Z,1004.2
2017-09-13T06:42:12.501Z,1004.2
2017-09-13T06:43:12.056Z,1004.2
2017-09-13T06:44:11.099Z,1004.1
2017-09-13T06:45:10.523Z,1004
2017-09-13T06:46:09.316Z,1004
2017-09-13T06:47:08.609Z,1004
2017-09-13T06:48:08.149Z,1003.9
2017-09-13T06:49:07.321Z,1003.9
2017-09-13T06:50:06.378Z,1003.9
2017-09-13T06:51:05.799Z,1003.8
2017-09-13T06:52:04.711Z,1003.8
2017-09-13T06:53:03.872Z,1003.8
2017-09-13T06:54:03.298Z,1003.6
2017-09-13T06:55:02.584Z,1003.6
2017-09-13T06:56:01.499Z,1003.6
2017-09-13T06:57:00.954Z,1003.6
2017-09-13T06:58:59.130Z,1003.7
2017-09-13T06:59:58.797Z,1003.6
2017-09-13T07:00:57.959Z,1003.6
2017-09-13T07:01:57.252Z,1003.6
2017-09-13T07:02:56.176Z,1003.6
2017-09-13T07:03:55.597Z,1003.5
2017-09-13T07:04:54.505Z,1003.5
2017-09-13T07:05:53.928Z,1003.5
2017-09-13T07:06:52.971Z,1003.5
2017-09-13T07:07:23.585Z,1003.5
2017-09-13T07:07:53.810Z,1003.5
2017-09-13T07:08:24.297Z,1003.5
2017-09-13T07:08:54.904Z,1003.5
2017-09-13T07:09:25.503Z,1003.5
2017-09-13T07:09:56.106Z,1003.5
2017-09-13T07:10:26.339Z,1003.5
2017-09-13T07:12:48.557Z,1003.4
2017-09-13T07:14:46.736Z,1003.4
2017-09-13T07:15:46.029Z,1003.3
2017-09-13T07:16:45.318Z,1003.3
2017-09-13T07:17:44.742Z,1003.4
2017-09-13T07:18:43.536Z,1003.3
2017-09-13T07:19:42.833Z,1003.4
2017-09-13T07:20:42.384Z,1003.3
2017-09-13T07:21:41.544Z,1003.4
2017-09-13T07:22:40.582Z,1003.4
2017-09-13T07:23:39.896Z,1003.3
2017-09-13T07:24:38.942Z,1003.3
2017-09-13T07:26:37.243Z,1003.3
2017-09-13T07:27:36.661Z,1003.3
2017-09-13T07:28:35.693Z,1003.3
2017-09-13T07:29:34.992Z,1003.3
2017-09-13T07:30:34.288Z,1003.3
2017-09-13T07:31:33.475Z,1003.3
2017-09-13T07:33:31.779Z,1003.3
2017-09-13T07:34:31.201Z,1003.3
2017-09-13T07:35:30.496Z,1003.3
2017-09-13T07:36:29.416Z,1003.2
2017-09-13T07:37:28.712Z,1003.2
2017-09-13T07:38:28.005Z,1003.2
2017-09-13T07:39:27.173Z,1003.1
2017-09-13T07:40:26.346Z,1003.2
2017-09-13T07:41:25.756Z,1003.1
2017-09-13T07:42:24.922Z,1003
2017-09-13T07:43:23.970Z,1003.1
2017-09-13T07:44:23.396Z,1003.1
2017-09-13T07:45:22.689Z,1003
2017-09-13T07:46:21.603Z,1003
2017-09-13T07:47:21.016Z,1003
2017-09-13T07:48:20.438Z,1003
2017-09-13T07:49:19.605Z,1002.9
2017-09-13T07:49:50.212Z,1002.9
2017-09-13T07:51:17.935Z,1003
2017-09-13T07:52:17.231Z,1003
2017-09-13T07:53:16.274Z,1002.9
2017-09-13T07:54:15.819Z,1002.9
2017-09-13T07:55:14.863Z,1003
2017-09-13T07:56:14.048Z,1003
2017-09-13T07:57:13.467Z,1002.9
2017-09-13T07:58:12.648Z,1002.9
2017-09-13T07:59:11.812Z,1002.9
2017-09-13T08:00:10.740Z,1002.9
2017-09-13T08:01:10.165Z,1002.9
2017-09-13T08:03:08.717Z,1002.9
2017-09-13T08:04:07.627Z,1003
2017-09-13T08:05:06.792Z,1002.9
2017-09-13T08:06:06.078Z,1002.9
2017-09-13T08:08:04.632Z,1003
2017-09-13T08:09:03.676Z,1002.8
2017-09-13T08:10:03.224Z,1002.8
2017-09-13T08:11:02.148Z,1002.8
2017-09-13T08:12:01.436Z,1002.9
2017-09-13T08:13:00.729Z,1002.9
2017-09-13T08:13:59.789Z,1003
2017-09-13T08:14:59.337Z,1002.9
2017-09-13T08:15:58.252Z,1002.9
2017-09-13T08:16:57.803Z,1002.9
2017-09-13T08:17:56.971Z,1002.9
2017-09-13T08:18:56.007Z,1002.9
2017-09-13T08:19:55.302Z,1002.8
2017-09-13T08:20:54.594Z,1002.9
2017-09-13T08:21:53.893Z,1002.9
2017-09-13T08:22:53.081Z,1002.9
2017-09-13T08:23:52.378Z,1002.8
2017-09-13T08:24:51.298Z,1002.8
2017-09-13T08:25:50.466Z,1002.8
2017-09-13T08:26:49.881Z,1002.8
2017-09-13T08:27:49.181Z,1002.8
2017-09-13T08:28:48.093Z,1002.8
2017-09-13T08:29:47.385Z,1002.8
2017-09-13T08:30:46.805Z,1002.8
2017-09-13T08:31:45.842Z,1002.8
2017-09-13T08:32:45.133Z,1002.8
2017-09-13T08:33:44.429Z,1002.8
2017-09-13T08:34:43.846Z,1002.7
2017-09-13T08:35:43.143Z,1002.7
2017-09-13T08:36:41.934Z,1002.7
2017-09-13T08:37:41.477Z,1002.8
2017-09-13T08:38:40.649Z,1002.7
2017-09-13T08:39:39.839Z,1002.6
2017-09-13T08:40:39.277Z,1002.6
2017-09-13T08:41:38.566Z,1002.4
2017-09-13T08:42:37.489Z,1002.5
2017-09-13T08:43:36.659Z,1002.7
2017-09-13T08:44:36.201Z,1002.7
2017-09-13T08:45:35.241Z,1002.7
2017-09-13T08:46:05.472Z,1002.7
2017-09-13T08:47:33.586Z,1002.6
2017-09-13T08:48:33.125Z,1002.6
2017-09-13T08:49:32.053Z,1002.6
2017-09-13T08:50:31.601Z,1002.5
2017-09-13T08:51:30.769Z,1002.5
2017-09-13T08:52:29.684Z,1002.5
2017-09-13T08:53:29.360Z,1002.5
2017-09-13T08:54:28.279Z,1002.3
2017-09-13T08:55:27.818Z,1002.4
2017-09-13T08:56:26.862Z,1002.4
2017-09-13T08:57:26.284Z,1002.4
2017-09-13T08:58:25.450Z,1002.4
2017-09-13T08:59:24.742Z,1002.4
2017-09-13T09:00:23.661Z,1002.5
2017-09-13T09:01:23.217Z,1002.2
2017-09-13T09:02:22.128Z,1002.2
2017-09-13T09:03:21.554Z,1002.3
2017-09-13T09:04:20.974Z,1002.2
2017-09-13T09:05:20.021Z,1002.1
2017-09-13T09:06:19.434Z,1002.1
2017-09-13T09:07:18.349Z,1002.1
2017-09-13T09:08:17.781Z,1002.1
2017-09-13T09:09:17.203Z,1002.1
2017-09-13T09:10:16.371Z,1002.1
2017-09-13T09:11:15.415Z,1002.1
2017-09-13T09:12:14.838Z,1002.1
2017-09-13T09:13:14.006Z,1002.1
2017-09-13T09:14:13.171Z,1002
2017-09-13T09:15:12.343Z,1002.1
2017-09-13T09:16:11.642Z,1002
2017-09-13T09:16:41.870Z,1002
2017-09-13T09:17:12.222Z,1002
2017-09-13T09:18:10.511Z,1001.9
2017-09-13T09:19:09.429Z,1002
2017-09-13T09:21:07.993Z,1001.8
2017-09-13T09:22:07.406Z,1001.7
2017-09-13T09:23:06.699Z,1001.7
2017-09-13T09:24:05.740Z,1001.8
2017-09-13T09:25:05.033Z,1001.8
2017-09-13T09:26:04.447Z,1001.7
2017-09-13T09:27:03.749Z,1001.6
2017-09-13T09:28:03.175Z,1001.7
2017-09-13T09:29:02.090Z,1001.6
2017-09-13T09:30:01.255Z,1001.8
2017-09-13T09:31:00.682Z,1001.6
2017-09-13T09:32:00.229Z,1001.4
2017-09-13T09:32:59.522Z,1001.6
2017-09-13T09:33:58.453Z,1001.5
2017-09-13T09:35:57.135Z,1001.6
2017-09-13T09:36:56.422Z,1001.7
2017-09-13T09:37:55.716Z,1001.6
2017-09-13T09:38:55.009Z,1001.4
2017-09-13T09:39:54.058Z,1001.6
2017-09-13T09:40:53.468Z,1001.6
2017-09-13T09:41:52.765Z,1001.6
2017-09-13T09:42:51.805Z,1001.6
2017-09-13T09:44:50.355Z,1001.6
2017-09-13T09:45:49.889Z,1001.6
2017-09-13T09:46:49.067Z,1001.6
2017-09-13T09:47:48.368Z,1001.5
2017-09-13T09:49:46.798Z,1001.6
2017-09-13T09:50:46.101Z,1001.7
2017-09-13T09:51:45.527Z,1001.6
2017-09-13T09:52:44.700Z,1001.7
2017-09-13T09:53:43.999Z,1001.8
2017-09-13T09:54:43.420Z,1001.7
2017-09-13T09:55:42.709Z,1001.8
2017-09-13T09:56:41.752Z,1001.7
2017-09-13T09:57:41.171Z,1001.7
2017-09-13T09:58:40.588Z,1001.7
2017-09-13T09:59:39.750Z,1001.7
2017-09-13T10:00:39.306Z,1001.8
2017-09-13T10:01:38.225Z,1001.7
2017-09-13T10:02:37.763Z,1001.7
2017-09-13T10:03:37.178Z,1001.7
2017-09-13T10:04:36.097Z,1001.7
2017-09-13T10:05:35.386Z,1001.8
2017-09-13T10:06:34.693Z,1001.8
2017-09-13T10:07:34.127Z,1001.8
2017-09-13T10:08:33.420Z,1001.7
2017-09-13T10:09:32.455Z,1001.7
2017-09-13T10:10:31.757Z,1001.7
2017-09-13T10:11:31.051Z,1001.7
2017-09-13T10:12:30.723Z,1001.7
2017-09-13T10:13:29.779Z,1001.7
2017-09-13T10:14:28.966Z,1001.7
2017-09-13T10:15:28.249Z,1001.7
2017-09-13T10:16:27.542Z,1001.7
2017-09-13T10:17:27.213Z,1001.7
2017-09-13T10:18:26.246Z,1001.7
2017-09-13T10:19:25.536Z,1001.8
2017-09-13T10:21:23.913Z,1001.8
2017-09-13T10:22:23.337Z,1001.7
2017-09-13T10:23:22.884Z,1001.6
2017-09-13T10:24:22.176Z,1001.6
2017-09-13T10:25:21.223Z,1001.8
2017-09-13T10:26:20.396Z,1001.8
2017-09-13T10:27:20.068Z,1001.5
2017-09-13T10:28:18.988Z,1001.7
2017-09-13T10:29:18.278Z,1001.7
2017-09-13T10:30:17.692Z,1001.6
2017-09-13T10:31:17.242Z,1001.6
2017-09-13T10:32:16.319Z,1001.5
2017-09-13T10:33:15.607Z,1001.5
2017-09-13T10:34:14.648Z,1001.6
2017-09-13T10:35:14.070Z,1001.6
2017-09-13T10:36:13.365Z,1001.5
2017-09-13T10:37:12.790Z,1001.5
2017-09-13T10:38:11.832Z,1001.6
2017-09-13T10:39:11.123Z,1001.6
2017-09-13T10:40:10.545Z,1001.6
2017-09-13T10:41:09.842Z,1001.5
2017-09-13T10:42:09.012Z,1001.4
2017-09-13T10:43:08.688Z,1001.4
2017-09-13T10:44:07.853Z,1001.4
2017-09-13T10:45:07.271Z,1001.3
2017-09-13T10:46:06.181Z,1001.3
2017-09-13T10:47:05.473Z,1001.2
2017-09-13T10:48:04.769Z,1001.3
2017-09-13T10:49:04.182Z,1001.3
2017-09-13T10:50:03.638Z,1001.4
2017-09-13T10:51:02.556Z,1001.5
2017-09-13T10:52:01.971Z,1001.4
2017-09-13T10:53:01.269Z,1001.4
2017-09-13T10:54:00.690Z,1001.5
2017-09-13T10:55:59.375Z,1001.3
2017-09-13T10:56:58.294Z,1001.3
2017-09-13T10:57:57.842Z,1001.3
2017-09-13T10:58:56.879Z,1001.3
2017-09-13T10:59:56.310Z,1001.2
2017-09-13T11:00:55.729Z,1001.2
2017-09-13T11:02:54.408Z,1001.3
2017-09-13T11:03:53.445Z,1001.4
2017-09-13T11:04:52.621Z,1001.5
2017-09-13T11:05:52.039Z,1001.4
2017-09-13T11:06:51.580Z,1001.4
2017-09-13T11:07:50.872Z,1001.4
2017-09-13T11:08:49.909Z,1001
2017-09-13T11:09:49.201Z,1001.1
2017-09-13T11:10:48.748Z,1001.2
2017-09-13T11:11:48.049Z,1001.2
2017-09-13T11:12:47.220Z,1001.1
2017-09-13T11:13:46.649Z,1001.1
2017-09-13T11:14:45.947Z,1001.2
2017-09-13T11:15:44.999Z,1001.2
2017-09-13T11:17:43.803Z,1001.2
2017-09-13T11:18:42.853Z,1001.3
2017-09-13T11:19:42.275Z,1001.3
2017-09-13T11:20:41.826Z,1001.3
2017-09-13T11:21:41.239Z,1001.4
2017-09-13T11:22:40.157Z,1001.2
2017-09-13T11:23:39.476Z,1001.2
2017-09-13T11:24:39.023Z,1001.5
2017-09-13T11:25:38.064Z,1001.1
2017-09-13T11:26:37.364Z,1001.2
2017-09-13T11:27:36.650Z,1001.2
2017-09-13T11:28:36.084Z,1001.1
2017-09-13T11:29:35.503Z,1001.1
2017-09-13T11:30:34.792Z,1001.1
2017-09-13T11:31:33.957Z,1001.1
2017-09-13T11:32:33.501Z,1001.1
2017-09-13T11:33:32.676Z,1001.1
2017-09-13T11:34:32.231Z,1001.1
2017-09-13T11:35:31.525Z,1001.1
2017-09-13T11:36:30.562Z,1001.1
2017-09-13T11:37:30.109Z,1001.1
2017-09-13T11:38:29.281Z,1001.1
2017-09-13T11:39:28.948Z,1001
2017-09-13T11:40:27.984Z,1001.1
2017-09-13T11:41:27.279Z,1001.1
2017-09-13T11:42:26.824Z,1000.8
2017-09-13T11:43:26.239Z,1000.8
2017-09-13T11:45:24.794Z,1001
2017-09-13T11:46:24.088Z,1001
2017-09-13T11:47:23.506Z,1001
2017-09-13T11:48:22.675Z,1001.1
2017-09-13T11:49:21.965Z,1001.1
2017-09-13T11:50:21.516Z,1001.1
2017-09-13T11:51:20.429Z,1001.1
2017-09-13T11:52:19.853Z,1001
2017-09-13T11:53:19.408Z,1001
2017-09-13T11:54:18.827Z,1001
2017-09-13T11:55:17.742Z,1001
2017-09-13T11:56:17.417Z,1000.8
2017-09-13T11:57:16.711Z,1001
2017-09-13T11:58:16.001Z,1001
2017-09-13T11:59:15.422Z,1000.8
2017-09-13T12:00:14.459Z,1000.8
2017-09-13T12:01:13.758Z,1000.8
2017-09-13T12:02:13.051Z,1001
2017-09-13T12:03:12.734Z,1001
2017-09-13T12:04:11.915Z,1001
2017-09-13T12:05:11.205Z,1001.1
2017-09-13T12:06:10.750Z,1001
2017-09-13T12:07:10.045Z,1001
2017-09-13T12:08:09.335Z,1001.1
2017-09-13T12:09:08.378Z,1001
2017-09-13T12:10:07.795Z,1001.1
2017-09-13T12:11:07.219Z,1001.2
2017-09-13T12:12:06.774Z,1001.3
2017-09-13T12:13:06.070Z,1001.3
2017-09-13T12:14:05.108Z,1001
2017-09-13T12:15:04.655Z,1001
2017-09-13T12:16:03.948Z,1001
2017-09-13T12:17:03.370Z,1001
2017-09-13T12:18:02.531Z,1000.8
2017-09-13T12:19:01.830Z,1000.8
2017-09-13T12:20:01.247Z,1000.8
2017-09-13T12:21:00.666Z,1001
2017-09-13T12:21:59.835Z,1001
2017-09-13T12:22:59.132Z,1000.8
2017-09-13T12:23:58.422Z,1000.8
2017-09-13T12:24:57.719Z,1001
2017-09-13T12:25:57.261Z,1001
2017-09-13T12:26:56.559Z,1000.7
2017-09-13T12:27:55.983Z,1000.8
2017-09-13T12:28:55.276Z,1001
2017-09-13T12:29:54.443Z,1000.8
2017-09-13T12:30:53.858Z,1001
2017-09-13T12:31:53.312Z,1001
2017-09-13T12:32:52.473Z,1000.8
2017-09-13T12:33:51.887Z,1001
2017-09-13T12:34:50.927Z,1001.1
2017-09-13T12:35:50.209Z,1001.2
2017-09-13T12:36:49.623Z,1001.2
2017-09-13T12:37:49.292Z,1001.2
2017-09-13T12:38:48.218Z,1001.2
2017-09-13T12:39:47.890Z,1001.3
2017-09-13T12:40:47.313Z,1001.3
2017-09-13T12:41:46.236Z,1001.3
2017-09-13T12:42:45.537Z,1001.1
2017-09-13T12:43:44.961Z,1001.2
2017-09-13T12:44:44.378Z,1001.2
2017-09-13T12:45:43.800Z,1001.2
2017-09-13T12:46:42.841Z,1001.2
2017-09-13T12:47:42.263Z,1001.2
2017-09-13T12:48:41.552Z,1001.1
2017-09-13T12:50:40.494Z,1001.2
2017-09-13T12:51:39.907Z,1001.1
2017-09-13T12:52:38.948Z,1001.1
2017-09-13T12:53:38.486Z,1001
2017-09-13T12:54:37.781Z,1001
2017-09-13T12:55:37.195Z,1001
2017-09-13T12:56:36.367Z,1001
2017-09-13T12:57:35.528Z,1001.1
2017-09-13T12:58:34.950Z,1000.8
2017-09-13T12:59:34.375Z,1001
2017-09-13T13:00:04.604Z,1001
2017-09-13T13:01:33.088Z,1001
2017-09-13T13:02:32.378Z,1001.1
2017-09-13T13:03:31.921Z,1001
2017-09-13T13:04:30.836Z,1001
2017-09-13T13:05:30.265Z,1001
2017-09-13T13:06:29.572Z,1000.8
2017-09-13T13:07:28.861Z,1000.8
2017-09-13T13:08:28.284Z,1000.8
2017-09-13T13:09:27.832Z,1000.8
2017-09-13T13:10:27.125Z,1000.8
2017-09-13T13:11:26.164Z,1000.8
2017-09-13T13:12:25.595Z,1000.8
2017-09-13T13:13:24.886Z,1000.8
2017-09-13T13:14:24.182Z,1000.8
2017-09-13T13:15:23.475Z,1000.8
2017-09-13T13:16:22.890Z,1000.8
2017-09-13T13:17:22.316Z,1000.8
2017-09-13T13:18:21.740Z,1000.7
2017-09-13T13:19:21.158Z,1000.7
2017-09-13T13:20:20.572Z,1000.8
2017-09-13T13:21:19.611Z,1000.7
2017-09-13T13:22:18.913Z,1000.8
2017-09-13T13:23:18.202Z,1000.7
2017-09-13T13:24:17.745Z,1000.8
2017-09-13T13:25:16.821Z,1000.7
2017-09-13T13:26:16.497Z,1000.7
2017-09-13T13:27:15.549Z,1000.7
2017-09-13T13:28:14.846Z,1000.7
2017-09-13T13:29:14.276Z,1000.8
2017-09-13T13:30:13.943Z,1000.7
2017-09-13T13:31:12.861Z,1000.7
2017-09-13T13:32:12.529Z,1000.8
2017-09-13T13:33:11.822Z,1000.8
2017-09-13T13:34:11.115Z,1000.8
2017-09-13T13:35:10.155Z,1000.8
2017-09-13T13:36:09.570Z,1000.8
2017-09-13T13:37:09.246Z,1000.7
2017-09-13T13:38:08.285Z,1000.6
2017-09-13T13:39:07.820Z,1000.7
2017-09-13T13:40:07.242Z,1000.6
2017-09-13T13:41:06.170Z,1000.6
2017-09-13T13:42:05.458Z,1000.7
2017-09-13T13:42:35.940Z,1000.7
2017-09-13T13:43:06.173Z,1000.7
2017-09-13T13:43:36.558Z,1000.7
2017-09-13T13:44:07.166Z,1000.7
2017-09-13T13:45:03.701Z,1000.8
2017-09-13T13:46:03.249Z,1000.8
2017-09-13T13:47:02.164Z,1000.8
2017-09-13T13:48:01.539Z,1000.6
2017-09-13T13:49:00.837Z,1000.5
2017-09-13T13:50:00.384Z,1000.5
2017-09-13T13:50:59.682Z,1000.4
2017-09-13T13:51:59.110Z,1000.5
2017-09-13T13:53:57.912Z,1000.6
2017-09-13T13:54:56.834Z,1000.6
2017-09-13T13:55:56.261Z,1000.6
2017-09-13T13:56:55.681Z,1000.5
2017-09-13T13:57:55.230Z,1000.5
2017-09-13T13:58:54.153Z,1000.6
2017-09-13T13:59:53.571Z,1000.7
2017-09-13T14:00:53.244Z,1000.7
2017-09-13T14:01:52.159Z,1000.7
2017-09-13T14:02:51.832Z,1000.8
2017-09-13T14:03:50.878Z,1000.7
2017-09-13T14:04:50.423Z,1000.7
2017-09-13T14:05:49.724Z,1000.8
2017-09-13T14:06:49.143Z,1000.8
2017-09-13T14:07:48.183Z,1001
2017-09-13T14:08:47.732Z,1001
2017-09-13T14:09:46.778Z,1001
2017-09-13T14:10:46.575Z,1000.8
2017-09-13T14:11:45.868Z,1000.8
2017-09-13T14:12:45.039Z,1000.7
2017-09-13T14:13:44.460Z,1000.8
2017-09-13T14:14:43.874Z,1000.8
2017-09-13T14:15:43.164Z,1001
2017-09-13T14:16:42.590Z,1000.8
2017-09-13T14:17:41.630Z,1000.8
2017-09-13T14:18:41.045Z,1000.7
2017-09-13T14:19:40.338Z,1000.7
2017-09-13T14:20:39.757Z,1000.8
2017-09-13T14:21:38.805Z,1000.8
2017-09-13T14:22:38.602Z,1000.7
2017-09-13T14:23:37.638Z,1000.7
2017-09-13T14:24:36.940Z,1000.8
2017-09-13T14:25:36.479Z,1000.7
2017-09-13T14:26:35.516Z,1001
2017-09-13T14:27:34.937Z,1001
2017-09-13T14:28:34.492Z,1001
2017-09-13T14:29:33.790Z,1001